Time;durP1;ratioP1;P1;durP2;ratioP2;P2;SDS_P1;SDS_P2;PMS_P1;PMS_P2;Temp;Humidity;BMP_temperature;BMP_pressure;BME280_temperature;BME280_humidity;BME280_pressure;Samples;Min_cycle;Max_cycle;Signal;HPM_P1;HPM_P2
2023/06/29 00:00:22;;;;;;;23.85;19.35;;;19.80;99.90;;;;;;6283330;22;19995;-71
2023/06/29 00:02:48;;;;;;;23.35;19.33;;;19.80;99.90;;;;;;6342346;22;20049;-71
2023/06/29 00:05:14;;;;;;;22.63;18.23;;;19.80;99.90;;;;;;6284258;22;19997;-73
2023/06/29 00:07:41;;;;;;;26.88;20.17;;;19.70;99.90;;;;;;6283961;22;20030;-71
2023/06/29 00:10:09;;;;;;;20.40;18.23;;;19.80;99.90;;;;;;6319950;22;19995;-71
2023/06/29 00:12:36;;;;;;;21.85;19.55;;;19.70;99.90;;;;;;6320390;22;20002;-70
2023/06/29 00:15:02;;;;;;;20.48;18.42;;;19.70;99.90;;;;;;6347515;22;19991;-71
2023/06/29 00:17:28;;;;;;;26.65;20.10;;;19.70;99.90;;;;;;6319399;22;19999;-71
2023/06/29 00:19:54;;;;;;;24.00;19.13;;;19.70;99.90;;;;;;6283604;22;20289;-71
2023/06/29 00:22:19;;;;;;;26.65;21.77;;;19.80;99.90;;;;;;6320733;22;20006;-70
2023/06/29 00:24:55;;;;;;;21.40;18.60;;;19.80;99.90;;;;;;6283838;22;20003;-70
2023/06/29 00:27:22;;;;;;;22.23;19.88;;;19.70;99.90;;;;;;6284157;22;20048;-70
2023/06/29 00:29:48;;;;;;;23.70;19.63;;;19.80;99.90;;;;;;6347001;22;19994;-71
2023/06/29 00:32:15;;;;;;;27.58;20.45;;;19.80;99.90;;;;;;6309402;22;20003;-71
2023/06/29 00:34:40;;;;;;;25.38;20.40;;;19.80;99.90;;;;;;6284099;22;19999;-70
2023/06/29 00:37:06;;;;;;;25.20;22.25;;;19.80;99.90;;;;;;6347620;22;20330;-71
2023/06/29 00:39:34;;;;;;;20.45;18.35;;;19.80;99.90;;;;;;6320982;22;19995;-71
2023/06/29 00:42:00;;;;;;;27.35;21.70;;;19.80;99.90;;;;;;6283238;22;20306;-71
2023/06/29 00:44:26;;;;;;;23.13;19.60;;;19.80;99.90;;;;;;6347220;22;20021;-72
2023/06/29 00:46:53;;;;;;;24.83;22.38;;;19.70;99.90;;;;;;6283921;22;20003;-71
2023/06/29 00:49:20;;;;;;;22.50;19.83;;;19.70;99.90;;;;;;6309316;22;20355;-71
2023/06/29 00:51:51;;;;;;;24.17;21.42;;;19.70;99.90;;;;;;6309072;22;19999;-72
2023/06/29 00:54:17;;;;;;;23.38;20.95;;;19.60;99.90;;;;;;6348273;22;20003;-71
2023/06/29 00:56:44;;;;;;;25.60;20.63;;;19.60;99.90;;;;;;6309666;22;20077;-71
2023/06/29 00:59:10;;;;;;;23.23;20.73;;;19.70;99.90;;;;;;6310116;22;19999;-71
2023/06/29 01:01:38;;;;;;;29.30;21.40;;;19.60;99.90;;;;;;6282404;22;20024;-71
2023/06/29 01:04:06;;;;;;;27.60;21.80;;;19.70;99.90;;;;;;6309907;22;20013;-71
2023/06/29 01:06:56;;;;;;;28.65;21.92;;;19.60;99.90;;;;;;6309181;22;20030;-72
2023/06/29 01:09:23;;;;;;;25.15;21.95;;;19.70;99.90;;;;;;6320682;22;19995;-71
2023/06/29 01:11:51;;;;;;;25.45;22.05;;;19.60;99.90;;;;;;6283680;22;20022;-70
2023/06/29 01:14:18;;;;;;;28.85;21.48;;;19.70;99.90;;;;;;6283539;22;19998;-73
2023/06/29 01:16:44;;;;;;;26.77;22.52;;;19.60;99.90;;;;;;6284098;22;19995;-71
2023/06/29 01:19:18;;;;;;;24.40;21.80;;;19.50;99.90;;;;;;6309864;22;20018;-71
2023/06/29 01:21:54;;;;;;;25.58;22.75;;;19.50;99.90;;;;;;6308941;22;20015;-71
2023/06/29 01:24:24;;;;;;;25.73;22.92;;;19.40;99.90;;;;;;6309370;22;20006;-71
2023/06/29 01:26:50;;;;;;;24.33;21.83;;;19.40;99.90;;;;;;6283774;22;20002;-71
2023/06/29 01:29:24;;;;;;;26.15;23.48;;;19.50;99.90;;;;;;6347554;22;20014;-74
2023/06/29 01:31:59;;;;;;;24.33;21.40;;;19.50;99.90;;;;;;6344731;22;20010;-71
2023/06/29 01:34:31;;;;;;;25.10;22.23;;;19.50;99.90;;;;;;6283944;22;20034;-70
2023/06/29 01:37:07;;;;;;;33.75;23.05;;;19.60;99.90;;;;;;6283995;22;20010;-72
2023/06/29 01:39:42;;;;;;;33.05;23.40;;;19.50;99.90;;;;;;6284152;22;20005;-71
2023/06/29 01:42:11;;;;;;;26.98;23.65;;;19.40;99.90;;;;;;6308490;22;20064;-71
2023/06/29 01:44:37;;;;;;;29.02;24.88;;;19.40;99.90;;;;;;6347738;22;20025;-73
2023/06/29 01:47:05;;;;;;;31.27;23.63;;;19.30;99.90;;;;;;6348103;22;20006;-71
2023/06/29 01:49:31;;;;;;;28.33;22.27;;;19.30;99.90;;;;;;6284290;22;19998;-71
2023/06/29 01:51:58;;;;;;;24.17;21.70;;;19.30;99.90;;;;;;6346748;22;19995;-71
2023/06/29 01:54:23;;;;;;;29.83;23.08;;;19.30;99.90;;;;;;6309448;22;20314;-71
2023/06/29 01:56:49;;;;;;;24.58;20.98;;;19.30;99.90;;;;;;6309691;22;19999;-71
2023/06/29 01:59:15;;;;;;;31.33;22.77;;;19.40;99.90;;;;;;6309919;22;20025;-71
2023/06/29 02:01:41;;;;;;;25.75;21.02;;;19.40;99.90;;;;;;6308125;22;20011;-71
2023/06/29 02:04:07;;;;;;;25.52;22.80;;;19.40;99.90;;;;;;6310913;22;20044;-72
2023/06/29 02:06:32;;;;;;;25.27;22.48;;;19.40;99.90;;;;;;6285216;22;20006;-72
2023/06/29 02:08:58;;;;;;;25.27;20.75;;;19.40;99.90;;;;;;6311320;22;20352;-71
2023/06/29 02:11:24;;;;;;;27.90;23.10;;;19.40;99.90;;;;;;6349377;22;20006;-71
2023/06/29 02:13:50;;;;;;;26.15;23.40;;;19.30;99.90;;;;;;6321328;22;20065;-71
2023/06/29 02:16:16;;;;;;;25.38;21.17;;;19.30;99.90;;;;;;6285284;22;20077;-72
2023/06/29 02:18:43;;;;;;;25.80;23.13;;;19.30;99.90;;;;;;6349485;22;19999;-72
2023/06/29 02:21:09;;;;;;;25.38;20.92;;;19.40;99.90;;;;;;6284855;22;20089;-72
2023/06/29 02:23:34;;;;;;;24.00;21.33;;;19.40;99.90;;;;;;6311358;22;20027;-71
2023/06/29 02:26:00;;;;;;;26.63;22.27;;;19.40;99.90;;;;;;6311040;22;20461;-71
2023/06/29 02:28:26;;;;;;;23.52;21.05;;;19.40;99.90;;;;;;6310652;22;20090;-72
2023/06/29 02:30:53;;;;;;;25.92;23.27;;;19.40;99.90;;;;;;6320925;22;20041;-72
2023/06/29 02:33:19;;;;;;;22.15;19.90;;;19.40;99.90;;;;;;6310928;22;20018;-70
2023/06/29 02:35:45;;;;;;;27.85;21.08;;;19.40;99.90;;;;;;6285368;22;20006;-72
2023/06/29 02:38:11;;;;;;;24.48;21.77;;;19.40;99.90;;;;;;6310946;22;20092;-71
2023/06/29 02:40:38;;;;;;;26.05;22.92;;;19.40;99.90;;;;;;6285026;22;20010;-71
2023/06/29 02:43:04;;;;;;;27.95;21.63;;;19.30;99.90;;;;;;6311595;22;20015;-71
2023/06/29 02:45:30;;;;;;;25.73;22.33;;;19.40;99.90;;;;;;6349177;22;20359;-71
2023/06/29 02:47:56;;;;;;;26.95;23.02;;;19.40;99.90;;;;;;6285525;22;20006;-72
2023/06/29 02:50:22;;;;;;;21.77;19.50;;;19.40;99.90;;;;;;6284651;22;20034;-73
2023/06/29 02:52:49;;;;;;;26.08;22.02;;;19.30;99.90;;;;;;6285710;22;20028;-71
2023/06/29 02:55:17;;;;;;;24.60;20.88;;;19.30;99.90;;;;;;6348138;22;20010;-71
2023/06/29 02:57:43;;;;;;;25.38;19.95;;;19.30;99.90;;;;;;6311055;22;20002;-71
2023/06/29 03:00:09;;;;;;;22.55;20.05;;;19.30;99.90;;;;;;6310955;22;20031;-71
2023/06/29 03:02:35;;;;;;;25.85;21.60;;;19.30;99.90;;;;;;6310269;22;20039;-71
2023/06/29 03:05:01;;;;;;;23.67;20.02;;;19.30;99.90;;;;;;6310754;22;20309;-71
2023/06/29 03:07:27;;;;;;;25.48;19.98;;;19.40;99.90;;;;;;6319908;22;19991;-71
2023/06/29 03:09:53;;;;;;;23.13;20.17;;;19.40;99.90;;;;;;6284857;22;20002;-72
2023/06/29 03:12:22;;;;;;;24.45;19.55;;;19.30;99.90;;;;;;6311212;22;19999;-71
2023/06/29 03:14:48;;;;;;;22.88;20.02;;;19.30;99.90;;;;;;6310250;22;20330;-70
2023/06/29 03:17:14;;;;;;;25.85;19.05;;;19.30;99.90;;;;;;6284537;22;19992;-71
2023/06/29 03:19:40;;;;;;;23.77;21.13;;;19.30;99.90;;;;;;6348720;22;19995;-72
2023/06/29 03:22:07;;;;;;;27.50;22.70;;;19.30;99.90;;;;;;6283867;22;20109;-71
2023/06/29 03:24:32;;;;;;;30.40;21.30;;;19.30;99.90;;;;;;6310305;22;19995;-70
2023/06/29 03:26:58;;;;;;;23.60;20.67;;;19.30;99.90;;;;;;6349203;22;20026;-71
2023/06/29 03:29:25;;;;;;;24.00;20.60;;;19.30;99.90;;;;;;6285189;22;20128;-70
2023/06/29 03:31:51;;;;;;;25.52;21.20;;;19.20;99.90;;;;;;6309192;22;20033;-71
2023/06/29 03:34:17;;;;;;;21.75;19.05;;;19.20;99.90;;;;;;6284572;22;20438;-72
2023/06/29 03:36:43;;;;;;;25.88;20.67;;;19.20;99.90;;;;;;6348801;22;19999;-71
2023/06/29 03:39:09;;;;;;;21.48;19.20;;;19.20;99.90;;;;;;6321255;22;20349;-71
2023/06/29 03:41:34;;;;;;;25.33;22.20;;;19.10;99.90;;;;;;6309959;22;20057;-72
2023/06/29 03:44:00;;;;;;;25.23;20.40;;;19.10;99.90;;;;;;6348715;22;19995;-71
2023/06/29 03:46:26;;;;;;;24.42;19.17;;;19.20;99.90;;;;;;6310633;22;20007;-73
2023/06/29 03:48:52;;;;;;;22.45;19.52;;;19.20;99.90;;;;;;6285035;22;20006;-71
2023/06/29 03:51:18;;;;;;;25.92;20.65;;;19.20;99.90;;;;;;6346782;22;19994;-71
2023/06/29 03:53:44;;;;;;;29.80;19.05;;;19.20;99.90;;;;;;6284676;22;20021;-71
2023/06/29 03:56:10;;;;;;;22.90;20.48;;;19.20;99.90;;;;;;6347041;22;20482;-71
2023/06/29 03:58:36;;;;;;;26.75;20.00;;;19.30;99.90;;;;;;6310478;22;20078;-73
2023/06/29 04:01:02;;;;;;;23.08;18.98;;;19.30;99.90;;;;;;6283989;22;19995;-71
2023/06/29 04:03:28;;;;;;;24.30;20.42;;;19.30;99.90;;;;;;6284759;22;20019;-71
2023/06/29 04:05:54;;;;;;;19.75;17.75;;;19.30;99.90;;;;;;6320512;22;20346;-71
2023/06/29 04:08:20;;;;;;;23.98;21.42;;;19.30;99.90;;;;;;6284780;22;20052;-71
2023/06/29 04:10:46;;;;;;;20.08;18.15;;;19.30;99.90;;;;;;6348051;22;20414;-73
2023/06/29 04:13:12;;;;;;;22.35;19.83;;;19.40;99.90;;;;;;6310462;22;20007;-70
2023/06/29 04:15:37;;;;;;;22.20;19.92;;;19.40;99.90;;;;;;6284699;22;20352;-71
2023/06/29 04:18:03;;;;;;;22.23;19.80;;;19.30;99.90;;;;;;6310054;22;20314;-71
2023/06/29 04:20:29;;;;;;;22.88;20.40;;;19.30;99.90;;;;;;6284682;22;20020;-71
2023/06/29 04:22:55;;;;;;;23.58;19.67;;;19.30;99.90;;;;;;6284695;22;20386;-71
2023/06/29 04:25:21;;;;;;;25.80;18.60;;;19.40;99.90;;;;;;6283884;22;19999;-71
2023/06/29 04:27:47;;;;;;;22.42;19.65;;;19.40;99.90;;;;;;6320112;22;20017;-71
2023/06/29 04:30:17;;;;;;;22.75;19.05;;;19.30;99.90;;;;;;6306984;22;19994;-73
2023/06/29 04:32:44;;;;;;;25.73;18.98;;;19.40;99.90;;;;;;6282905;22;20042;-71
2023/06/29 04:35:10;;;;;;;24.77;18.83;;;19.40;99.90;;;;;;6282743;22;19999;-71
2023/06/29 04:37:42;;;;;;;24.98;20.35;;;19.40;99.90;;;;;;6309535;22;20007;-72
2023/06/29 04:40:12;;;;;;;23.20;18.38;;;19.40;99.90;;;;;;6309116;22;20885;-71
2023/06/29 04:42:45;;;;;;;19.23;17.38;;;19.40;99.90;;;;;;6284612;22;20018;-71
2023/06/29 04:45:17;;;;;;;20.90;18.70;;;19.40;99.90;;;;;;6309311;22;19999;-71
2023/06/29 04:47:51;;;;;;;24.17;19.60;;;19.50;99.90;;;;;;6281768;22;20011;-71
2023/06/29 04:50:25;;;;;;;20.55;17.63;;;19.70;99.90;;;;;;6283228;22;20003;-73
2023/06/29 04:52:59;;;;;;;19.13;17.08;;;19.50;99.90;;;;;;6281695;22;20402;-71
2023/06/29 04:55:25;;;;;;;22.67;17.55;;;19.60;99.90;;;;;;6347578;22;20056;-71
2023/06/29 04:57:52;;;;;;;19.45;17.20;;;19.70;99.90;;;;;;6319880;22;19995;-72
2023/06/29 05:00:19;;;;;;;26.90;19.73;;;19.80;99.90;;;;;;6319306;22;20011;-71
2023/06/29 05:02:45;;;;;;;23.30;18.50;;;19.90;99.90;;;;;;6341609;22;20034;-71
2023/06/29 05:05:11;;;;;;;24.95;20.08;;;19.90;99.90;;;;;;6346973;22;20840;-71
2023/06/29 05:07:37;;;;;;;22.05;17.17;;;19.90;99.90;;;;;;6347403;22;20070;-71
2023/06/29 05:10:05;;;;;;;20.27;17.90;;;19.90;99.90;;;;;;6346981;22;19999;-72
2023/06/29 05:12:31;;;;;;;28.02;20.45;;;19.90;99.90;;;;;;6283851;22;20010;-74
2023/06/29 05:14:58;;;;;;;25.42;18.58;;;20.20;99.90;;;;;;6347481;22;20426;-72
2023/06/29 05:17:24;;;;;;;19.48;16.33;;;20.00;99.90;;;;;;6319355;22;19995;-71
2023/06/29 05:19:51;;;;;;;21.67;17.65;;;20.10;99.90;;;;;;6309608;22;20028;-72
2023/06/29 05:22:17;;;;;;;23.15;16.95;;;20.10;99.90;;;;;;6309185;22;20017;-71
2023/06/29 05:24:43;;;;;;;23.88;19.30;;;20.10;99.90;;;;;;6283838;22;19995;-72
2023/06/29 05:27:09;;;;;;;20.63;17.17;;;20.10;99.90;;;;;;6283783;22;20377;-72
2023/06/29 05:29:36;;;;;;;24.98;17.63;;;20.10;99.90;;;;;;6319934;22;20074;-72
2023/06/29 05:32:02;;;;;;;22.73;18.65;;;20.10;99.90;;;;;;6315103;22;20040;-72
2023/06/29 05:34:28;;;;;;;23.45;18.48;;;20.10;99.90;;;;;;6319173;22;20090;-72
2023/06/29 05:36:54;;;;;;;24.50;18.05;;;20.20;99.90;;;;;;6347801;22;20022;-71
2023/06/29 05:39:20;;;;;;;23.65;18.83;;;20.20;99.90;;;;;;6285417;22;20002;-71
2023/06/29 05:41:46;;;;;;;21.55;17.23;;;20.20;99.90;;;;;;6311317;22;20086;-73
2023/06/29 05:44:12;;;;;;;23.02;18.75;;;20.20;99.90;;;;;;6286618;22;20089;-71
2023/06/29 05:46:37;;;;;;;21.15;17.27;;;20.20;99.90;;;;;;6350220;22;20072;-72
2023/06/29 05:49:03;;;;;;;21.05;18.48;;;20.20;99.90;;;;;;6321453;22;19995;-71
2023/06/29 05:51:30;;;;;;;19.92;16.65;;;20.30;99.90;;;;;;6285191;22;20005;-72
2023/06/29 05:53:56;;;;;;;22.08;17.60;;;20.20;99.90;;;;;;6349935;22;20053;-71
2023/06/29 05:56:22;;;;;;;23.45;17.92;;;20.40;99.90;;;;;;6285750;22;20000;-72
2023/06/29 05:58:47;;;;;;;25.98;17.15;;;20.40;99.90;;;;;;6285882;22;19995;-72
2023/06/29 06:01:14;;;;;;;22.35;17.55;;;20.60;99.90;;;;;;6310785;22;19991;-72
2023/06/29 06:03:40;;;;;;;23.75;18.02;;;20.70;99.90;;;;;;6312805;22;20026;-72
2023/06/29 06:06:06;;;;;;;17.02;15.32;;;20.90;99.90;;;;;;6311540;22;20420;-73
2023/06/29 06:08:32;;;;;;;23.33;17.65;;;21.20;99.90;;;;;;6286102;22;20068;-72
2023/06/29 06:10:58;;;;;;;22.67;17.85;;;21.40;99.90;;;;;;6311252;22;20364;-73
2023/06/29 06:13:24;;;;;;;24.42;19.30;;;21.60;99.90;;;;;;6311343;22;20007;-72
2023/06/29 06:15:50;;;;;;;20.50;17.50;;;21.60;99.90;;;;;;6349466;22;20065;-72
2023/06/29 06:18:16;;;;;;;20.90;17.58;;;21.60;99.90;;;;;;6285305;22;19999;-73
2023/06/29 06:20:42;;;;;;;26.88;18.45;;;21.80;99.90;;;;;;6285595;22;19999;-72
2023/06/29 06:23:08;;;;;;;20.77;17.50;;;22.00;99.90;;;;;;6321174;22;20015;-73
2023/06/29 06:25:33;;;;;;;19.52;17.35;;;22.20;99.90;;;;;;6285905;22;20024;-72
2023/06/29 06:28:00;;;;;;;29.52;17.90;;;22.30;99.90;;;;;;6285507;22;20002;-71
2023/06/29 06:30:26;;;;;;;19.15;15.63;;;22.40;99.90;;;;;;6285202;22;20082;-76
2023/06/29 06:32:52;;;;;;;29.42;17.15;;;22.40;99.90;;;;;;6314714;22;20029;-72
2023/06/29 06:35:18;;;;;;;22.52;17.52;;;22.50;99.90;;;;;;6321288;22;20422;-73
2023/06/29 06:37:45;;;;;;;24.73;17.73;;;22.60;99.90;;;;;;6346859;22;20082;-73
2023/06/29 06:40:11;;;;;;;20.75;17.23;;;22.90;99.90;;;;;;6283427;22;19999;-77
2023/06/29 06:42:39;;;;;;;21.73;17.70;;;23.00;99.90;;;;;;6281361;22;20372;-72
2023/06/29 06:45:06;;;;;;;24.33;17.02;;;22.90;99.90;;;;;;6310442;22;20001;-71
2023/06/29 06:47:35;;;;;;;20.08;17.73;;;23.20;99.90;;;;;;6283795;22;20025;-72
2023/06/29 06:50:02;;;;;;;22.35;18.05;;;23.40;99.90;;;;;;6346990;22;19999;-72
2023/06/29 06:52:28;;;;;;;21.48;16.17;;;23.60;99.90;;;;;;6283811;22;19995;-77
2023/06/29 06:54:56;;;;;;;22.33;16.05;;;24.10;99.90;;;;;;6349236;22;19999;-71
2023/06/29 06:57:22;;;;;;;19.92;16.23;;;24.90;99.90;;;;;;6347965;22;20356;-71
2023/06/29 06:59:48;;;;;;;23.70;16.17;;;25.20;99.90;;;;;;6347254;22;20413;-72
2023/06/29 07:02:14;;;;;;;22.77;16.77;;;25.50;99.90;;;;;;6315877;22;20011;-72
2023/06/29 07:04:40;;;;;;;22.42;16.95;;;25.50;99.90;;;;;;6310749;22;19999;-70
2023/06/29 07:07:07;;;;;;;21.80;17.67;;;25.60;99.90;;;;;;6284809;22;20101;-71
2023/06/29 07:09:33;;;;;;;21.40;18.08;;;25.90;99.90;;;;;;6349158;22;19991;-72
2023/06/29 07:11:59;;;;;;;20.90;18.20;;;26.20;99.90;;;;;;6309257;22;20022;-72
2023/06/29 07:14:25;;;;;;;21.60;17.70;;;26.40;99.90;;;;;;6321438;22;19999;-72
2023/06/29 07:16:51;;;;;;;25.20;18.33;;;27.00;99.90;;;;;;6347746;22;19999;-72
2023/06/29 07:19:18;;;;;;;25.17;19.02;;;27.50;99.90;;;;;;6310997;22;20079;-74
2023/06/29 07:21:44;;;;;;;17.65;14.57;;;27.70;99.90;;;;;;6348529;22;20014;-73
2023/06/29 07:24:10;;;;;;;23.63;15.85;;;27.10;99.90;;;;;;6321107;22;19998;-72
2023/06/29 07:26:37;;;;;;;19.33;15.48;;;27.10;99.90;;;;;;6320823;22;20090;-75
2023/06/29 07:29:06;;;;;;;20.67;16.35;;;26.80;99.90;;;;;;6348144;22;20070;-72
2023/06/29 07:31:32;;;;;;;18.92;14.75;;;26.70;99.90;;;;;;6283540;22;20002;-72
2023/06/29 07:33:58;;;;;;;21.83;17.80;;;27.10;99.90;;;;;;6310310;22;19995;-73
2023/06/29 07:36:26;;;;;;;16.85;15.05;;;27.20;99.90;;;;;;6321289;22;20002;-73
2023/06/29 07:38:52;;;;;;;22.38;16.95;;;27.20;99.90;;;;;;6284767;22;20005;-72
2023/06/29 07:41:19;;;;;;;20.17;16.58;;;26.70;99.90;;;;;;6321199;22;19998;-73
2023/06/29 07:43:56;;;;;;;19.98;17.88;;;26.70;99.90;;;;;;6310991;22;20377;-72
2023/06/29 07:46:23;;;;;;;22.42;15.75;;;26.50;99.90;;;;;;6285310;22;20010;-72
2023/06/29 07:48:50;;;;;;;19.90;16.65;;;26.00;99.90;;;;;;6310789;22;20360;-72
2023/06/29 07:51:17;;;;;;;16.73;14.63;;;25.80;99.90;;;;;;6284562;22;20006;-72
2023/06/29 07:53:43;;;;;;;18.75;15.38;;;25.50;99.90;;;;;;6284196;22;19995;-72
2023/06/29 07:56:09;;;;;;;18.05;15.15;;;25.30;99.90;;;;;;6347389;22;20370;-72
2023/06/29 07:58:35;;;;;;;22.10;16.98;;;25.30;99.90;;;;;;6321349;22;19998;-72
2023/06/29 08:01:02;;;;;;;23.10;16.98;;;25.30;99.90;;;;;;6346458;22;20295;-72
2023/06/29 08:03:28;;;;;;;17.75;15.75;;;25.10;99.90;;;;;;6311618;22;20326;-72
2023/06/29 08:05:55;;;;;;;23.23;17.23;;;24.90;99.90;;;;;;6284073;22;20003;-73
2023/06/29 08:08:21;;;;;;;20.77;16.48;;;24.90;99.90;;;;;;6284569;22;19995;-74
2023/06/29 08:10:48;;;;;;;22.95;17.63;;;24.90;99.90;;;;;;6284296;22;20013;-74
2023/06/29 08:13:15;;;;;;;20.27;18.08;;;25.00;99.90;;;;;;6346825;22;20318;-72
2023/06/29 08:15:41;;;;;;;22.63;18.80;;;24.90;99.90;;;;;;6348320;22;20014;-72
2023/06/29 08:18:07;;;;;;;21.35;17.23;;;24.70;99.90;;;;;;6347944;22;20005;-73
2023/06/29 08:20:34;;;;;;;21.75;17.70;;;24.60;99.90;;;;;;6348116;22;20078;-72
2023/06/29 08:23:00;;;;;;;24.63;20.35;;;24.70;99.90;;;;;;6284257;22;20079;-74
2023/06/29 08:25:27;;;;;;;25.42;17.20;;;24.40;99.90;;;;;;6347603;22;20064;-73
2023/06/29 08:27:53;;;;;;;22.02;18.45;;;24.60;99.90;;;;;;6320021;22;20006;-70
2023/06/29 08:30:19;;;;;;;23.40;18.20;;;24.60;99.90;;;;;;6284080;22;20023;-72
2023/06/29 08:32:48;;;;;;;21.15;16.15;;;24.80;99.90;;;;;;6340863;22;20003;-73
2023/06/29 08:35:14;;;;;;;22.98;19.35;;;25.20;99.90;;;;;;6320013;22;20078;-72
2023/06/29 08:37:40;;;;;;;21.58;18.42;;;25.10;99.90;;;;;;6346380;22;20073;-72
2023/06/29 08:40:07;;;;;;;24.20;19.38;;;25.20;99.90;;;;;;6320374;22;20042;-74
2023/06/29 08:42:33;;;;;;;21.33;17.98;;;25.20;99.90;;;;;;6309341;22;20473;-72
2023/06/29 08:44:59;;;;;;;25.05;18.52;;;25.00;99.90;;;;;;6284482;22;20121;-72
2023/06/29 08:47:28;;;;;;;18.25;16.45;;;25.10;99.90;;;;;;6346892;22;20038;-75
2023/06/29 08:49:57;;;;;;;23.63;18.20;;;25.20;99.90;;;;;;6284041;22;19999;-72
2023/06/29 08:52:26;;;;;;;24.20;18.40;;;25.60;99.90;;;;;;6283373;22;20026;-72
2023/06/29 08:54:53;;;;;;;19.70;17.45;;;25.80;99.90;;;;;;6347374;22;20007;-72
2023/06/29 08:57:19;;;;;;;24.42;18.33;;;25.70;99.90;;;;;;6346393;22;20006;-72
2023/06/29 08:59:48;;;;;;;22.75;18.02;;;25.90;99.90;;;;;;6347469;22;19994;-72
2023/06/29 09:02:15;;;;;;;20.65;16.83;;;26.00;99.90;;;;;;6344051;22;20090;-72
2023/06/29 09:04:40;;;;;;;24.08;18.75;;;26.20;99.90;;;;;;6347861;22;20051;-69
2023/06/29 09:07:06;;;;;;;20.33;18.13;;;26.70;99.90;;;;;;6347959;22;20026;-72
2023/06/29 09:09:32;;;;;;;22.25;18.65;;;27.30;99.90;;;;;;6348341;22;19995;-72
2023/06/29 09:12:01;;;;;;;21.00;17.55;;;27.70;99.90;;;;;;6320508;22;20018;-68
2023/06/29 09:14:32;;;;;;;18.50;16.42;;;27.50;99.60;;;;;;6351344;22;19995;-70
2023/06/29 09:17:01;;;;;;;19.30;16.27;;;27.40;99.50;;;;;;6351334;22;20022;-72
2023/06/29 09:19:27;;;;;;;22.15;17.85;;;27.50;99.40;;;;;;6350790;22;19995;-73
2023/06/29 09:21:55;;;;;;;21.48;15.85;;;27.50;99.50;;;;;;6287558;22;20011;-72
2023/06/29 09:24:21;;;;;;;22.92;18.00;;;27.20;99.30;;;;;;6351041;22;19995;-72
2023/06/29 09:26:53;;;;;;;22.38;19.27;;;27.00;99.80;;;;;;6287133;22;20002;-72
2023/06/29 09:29:20;;;;;;;22.90;16.40;;;27.10;99.60;;;;;;6351551;22;19994;-74
2023/06/29 09:31:56;;;;;;;27.48;18.23;;;27.40;99.40;;;;;;6348892;22;19991;-72
2023/06/29 09:34:25;;;;;;;18.58;16.60;;;27.10;99.30;;;;;;6287200;22;20003;-72
2023/06/29 09:36:51;;;;;;;20.63;17.02;;;26.90;99.50;;;;;;6287122;22;20048;-72
2023/06/29 09:39:18;;;;;;;25.65;17.67;;;26.60;99.60;;;;;;6351506;22;20074;-72
2023/06/29 09:41:56;;;;;;;22.55;15.63;;;26.60;99.40;;;;;;6349580;22;20071;-71
2023/06/29 09:44:25;;;;;;;18.52;15.63;;;26.30;99.30;;;;;;6323881;22;20409;-72
2023/06/29 09:47:02;;;;;;;20.52;17.58;;;26.30;99.90;;;;;;6287391;22;19995;-71
2023/06/29 09:49:29;;;;;;;19.05;15.50;;;26.40;99.90;;;;;;6313230;22;20045;-72
2023/06/29 09:52:05;;;;;;;22.15;19.05;;;26.40;99.90;;;;;;6312732;22;20073;-71
2023/06/29 09:54:35;;;;;;;25.40;17.77;;;26.50;99.90;;;;;;6312649;22;20448;-71
2023/06/29 09:57:03;;;;;;;;;;;26.70;99.90;;;;;;6286555;22;20065;-71
2023/06/29 09:59:35;;;;;;;21.92;16.90;;;26.70;99.90;;;;;;6286391;22;19898;-72
2023/06/29 10:02:03;;;;;;;25.23;18.33;;;26.80;99.60;;;;;;6312306;22;20060;-71
2023/06/29 10:04:29;;;;;;;19.17;16.80;;;26.60;98.90;;;;;;6312817;22;20055;-71
2023/06/29 10:07:08;;;;;;;20.00;16.20;;;26.30;99.40;;;;;;6349314;22;20006;-71
2023/06/29 10:09:40;;;;;;;18.92;16.02;;;26.40;99.10;;;;;;6287348;22;20003;-70
2023/06/29 10:12:09;;;;;;;21.05;17.77;;;26.30;99.40;;;;;;6323050;22;20462;-73
2023/06/29 10:14:37;;;;;;;19.38;17.30;;;26.30;99.70;;;;;;6313345;22;20479;-71
2023/06/29 10:17:09;;;;;;;20.35;16.85;;;26.20;99.70;;;;;;6351104;22;19995;-71
2023/06/29 10:19:38;;;;;;;23.15;17.58;;;26.10;99.60;;;;;;6323738;22;20078;-71
2023/06/29 10:22:07;;;;;;;21.35;15.90;;;26.30;99.90;;;;;;6312226;22;20114;-72
2023/06/29 10:24:41;;;;;;;18.13;15.60;;;26.50;99.70;;;;;;6312040;22;20422;-71
2023/06/29 10:27:09;;;;;;;20.10;16.85;;;26.50;99.40;;;;;;6322197;22;20313;-72
2023/06/29 10:29:46;;;;;;;23.23;16.52;;;26.30;99.90;;;;;;6321394;22;20453;-74
2023/06/29 10:32:31;;;;;;;20.60;16.42;;;26.40;99.80;;;;;;6310314;22;20006;-73
2023/06/29 10:35:07;;;;;;;21.77;17.02;;;26.50;99.70;;;;;;6310956;22;20041;-71
2023/06/29 10:37:36;;;;;;;27.70;17.75;;;26.50;99.80;;;;;;6311259;22;20048;-71
2023/06/29 10:40:05;;;;;;;22.23;18.30;;;26.70;99.90;;;;;;6285101;22;20109;-72
2023/06/29 10:42:37;;;;;;;21.23;16.85;;;26.50;99.50;;;;;;6348340;22;20010;-73
2023/06/29 10:45:23;;;;;;;18.27;16.10;;;26.70;99.60;;;;;;6285087;22;20007;-72
2023/06/29 10:48:08;;;;;;;22.25;16.88;;;26.90;99.50;;;;;;6311138;22;20042;-72
2023/06/29 10:50:42;;;;;;;18.08;16.02;;;26.90;99.30;;;;;;6349273;22;19999;-71
2023/06/29 10:53:13;;;;;;;23.20;17.15;;;26.90;99.30;;;;;;6347251;22;20026;-75
2023/06/29 10:55:45;;;;;;;20.52;16.60;;;26.80;99.40;;;;;;6349147;22;20006;-73
2023/06/29 10:58:21;;;;;;;21.55;17.15;;;27.20;99.60;;;;;;6321874;22;20001;-72
2023/06/29 11:00:48;;;;;;;23.02;17.20;;;27.40;99.20;;;;;;6320953;22;20037;-72
2023/06/29 11:03:14;;;;;;;17.42;15.70;;;27.40;98.60;;;;;;6313975;22;20007;-71
2023/06/29 11:05:40;;;;;;;22.27;16.30;;;27.10;98.80;;;;;;6310979;22;20315;-72
2023/06/29 11:08:07;;;;;;;19.20;17.10;;;26.60;99.20;;;;;;6348959;22;20022;-74
2023/06/29 11:10:34;;;;;;;21.48;17.60;;;26.30;98.90;;;;;;6285190;22;20026;-72
2023/06/29 11:13:00;;;;;;;23.98;18.88;;;26.00;99.80;;;;;;6285306;22;20406;-71
2023/06/29 11:15:28;;;;;;;22.33;17.85;;;26.00;99.80;;;;;;6311146;22;20056;-72
2023/06/29 11:17:54;;;;;;;22.33;17.52;;;26.00;99.90;;;;;;6349305;22;19998;-74
2023/06/29 11:20:23;;;;;;;19.73;15.95;;;26.10;99.90;;;;;;6285169;22;20059;-71
2023/06/29 11:22:51;;;;;;;19.15;16.17;;;26.10;99.90;;;;;;6285225;22;20014;-71
2023/06/29 11:25:17;;;;;;;22.15;15.77;;;26.00;99.90;;;;;;6349318;22;20011;-73
2023/06/29 11:27:44;;;;;;;18.17;14.30;;;26.00;99.90;;;;;;6349070;22;19994;-73
2023/06/29 11:30:10;;;;;;;21.02;16.80;;;26.00;99.90;;;;;;6321129;22;19995;-72
2023/06/29 11:32:37;;;;;;;20.77;16.90;;;25.70;99.90;;;;;;6284618;22;20021;-73
2023/06/29 11:35:05;;;;;;;22.95;15.98;;;25.90;99.90;;;;;;6285472;22;19999;-70
2023/06/29 11:37:35;;;;;;;23.33;18.30;;;26.00;99.90;;;;;;6284933;22;20734;-72
2023/06/29 11:40:07;;;;;;;23.48;17.90;;;25.90;99.90;;;;;;6348401;22;19998;-72
2023/06/29 11:42:35;;;;;;;21.33;18.00;;;25.60;99.90;;;;;;6284642;22;20013;-73
2023/06/29 11:45:06;;;;;;;20.63;17.10;;;25.30;99.90;;;;;;6285025;22;19995;-72
2023/06/29 11:47:32;;;;;;;25.00;19.08;;;25.40;99.90;;;;;;6285196;22;20057;-72
2023/06/29 11:50:03;;;;;;;22.65;18.85;;;25.40;99.90;;;;;;6348906;22;19998;-72
2023/06/29 11:52:33;;;;;;;28.00;19.63;;;25.50;99.90;;;;;;6284436;22;19998;-72
2023/06/29 11:54:59;;;;;;;;;;;25.50;99.90;;;;;;6349672;22;20006;-72
2023/06/29 11:57:25;;;;;;;31.55;19.88;;;25.30;99.90;;;;;;6284947;22;19906;-72
2023/06/29 11:59:51;;;;;;;21.08;17.25;;;25.40;99.90;;;;;;6346946;22;20306;-71
2023/06/29 12:02:20;;;;;;;21.90;17.65;;;25.40;99.90;;;;;;6344543;22;20014;-73
2023/06/29 12:05:00;;;;;;;20.10;17.10;;;25.40;99.90;;;;;;6285095;22;20003;-72
2023/06/29 12:07:38;;;;;;;23.98;19.25;;;25.30;99.90;;;;;;6348778;22;20237;-72
2023/06/29 12:10:06;;;;;;;21.00;18.00;;;25.20;99.90;;;;;;6320671;22;20005;-72
2023/06/29 12:12:43;;;;;;;22.65;18.67;;;25.20;99.90;;;;;;6284425;22;20007;-73
2023/06/29 12:15:12;;;;;;;25.05;19.45;;;25.20;99.90;;;;;;6284581;22;20002;-72
2023/06/29 12:17:38;;;;;;;24.80;16.58;;;25.30;99.90;;;;;;6284832;22;20003;-72
2023/06/29 12:20:12;;;;;;;22.58;17.92;;;25.20;99.90;;;;;;6348689;22;20806;-73
2023/06/29 12:22:38;;;;;;;22.08;18.13;;;25.00;99.90;;;;;;6320645;22;20015;-72
2023/06/29 12:25:04;;;;;;;20.92;17.45;;;25.30;99.90;;;;;;6284562;22;20547;-72
2023/06/29 12:27:30;;;;;;;22.88;17.23;;;25.40;99.90;;;;;;6320538;22;19995;-72
2023/06/29 12:29:56;;;;;;;21.17;18.02;;;25.20;99.90;;;;;;6284591;22;20001;-72